<?xml version="1.0" encoding="UTF-8" standalone="no" ?>
<gpx xmlns="http://www.topografix.com/GPX/1/1" xmlns:xsi="http://www.w3.org/2001/XMLSchema-instance" xsi:schemaLocation="http://www.topografix.com/GPX/1/1 http://www.topografix.com/GPX/1/1/gpx.xsd" version="1.1" creator="VisuGPX - https://www.visugpx.com">
  <metadata>
    <name>Col de l'Arc parapente</name>
    <desc><![CDATA[Col de l'Arc parapente depuis Saint Paul de Varces]]></desc>
  </metadata>
  <trk>
    <name><![CDATA[2018-10-18 06:05]]></name>
    <desc><![CDATA[<p>Heure de départ: 10/18/2018 06:05<br/>Heure d'arrivée: 10/18/2018 08:12<br/>Distance: 10,8 km (02:06)<br/>Temps déplacement: 01:41<br/>Vitesse moyenne: 5,12 km/h<br/>Vitesse moyenne mouv.: 6,4 km/h<br/>Vitesse Max.: 56,53 km/h<br/>Altitude minimale: 376 m<br/>Altitude maximale: 1730 m<br/>Vitesse de montée: 713,5 m/h<br/>Vitesse de descente: -6131,4 m/h<br/>Gain d'altitude: 1349 m<br/>Perte d'altitude: -1325 m<br/>Temps de montée: 01:53<br/>Temps de descente: 00:12<br/></p><hr align="center" width="480" style="height: 2px; width: 517px"/>]]></desc>
    <trkseg>
      <trkpt lat="45.0702" lon="5.64144">
        <ele>376.67</ele>
        <time>2018-10-18T04:05:40Z</time>
      </trkpt>
      <trkpt lat="45.07009" lon="5.6412">
        <ele>384.35</ele>
        <time>2018-10-18T04:05:56Z</time>
      </trkpt>
      <trkpt lat="45.07001" lon="5.64095">
        <ele>385.6</ele>
        <time>2018-10-18T04:06:10Z</time>
      </trkpt>
      <trkpt lat="45.06996" lon="5.64067">
        <ele>385.76</ele>
        <time>2018-10-18T04:06:24Z</time>
      </trkpt>
      <trkpt lat="45.0699" lon="5.64041">
        <ele>386.02</ele>
        <time>2018-10-18T04:06:36Z</time>
      </trkpt>
      <trkpt lat="45.06987" lon="5.64015">
        <ele>386.23</ele>
        <time>2018-10-18T04:06:46Z</time>
      </trkpt>
      <trkpt lat="45.06984" lon="5.63986">
        <ele>386.73</ele>
        <time>2018-10-18T04:07:02Z</time>
      </trkpt>
      <trkpt lat="45.06978" lon="5.63962">
        <ele>387.47</ele>
        <time>2018-10-18T04:07:14Z</time>
      </trkpt>
      <trkpt lat="45.06971" lon="5.63938">
        <ele>388.33</ele>
        <time>2018-10-18T04:07:26Z</time>
      </trkpt>
      <trkpt lat="45.06959" lon="5.63917">
        <ele>389.36</ele>
        <time>2018-10-18T04:07:38Z</time>
      </trkpt>
      <trkpt lat="45.06944" lon="5.63896">
        <ele>390.39</ele>
        <time>2018-10-18T04:07:50Z</time>
      </trkpt>
      <trkpt lat="45.06931" lon="5.63875">
        <ele>391.28</ele>
        <time>2018-10-18T04:08:02Z</time>
      </trkpt>
      <trkpt lat="45.06937" lon="5.63849">
        <ele>392.01</ele>
        <time>2018-10-18T04:08:14Z</time>
      </trkpt>
      <trkpt lat="45.06952" lon="5.6383">
        <ele>392.62</ele>
        <time>2018-10-18T04:08:26Z</time>
      </trkpt>
      <trkpt lat="45.06965" lon="5.63813">
        <ele>393.16</ele>
        <time>2018-10-18T04:08:38Z</time>
      </trkpt>
      <trkpt lat="45.06976" lon="5.63789">
        <ele>393.73</ele>
        <time>2018-10-18T04:08:52Z</time>
      </trkpt>
      <trkpt lat="45.06984" lon="5.63766">
        <ele>394.15</ele>
        <time>2018-10-18T04:09:04Z</time>
      </trkpt>
      <trkpt lat="45.0699" lon="5.63737">
        <ele>394.53</ele>
        <time>2018-10-18T04:09:16Z</time>
      </trkpt>
      <trkpt lat="45.07007" lon="5.63727">
        <ele>394.87</ele>
        <time>2018-10-18T04:09:28Z</time>
      </trkpt>
      <trkpt lat="45.07025" lon="5.63736">
        <ele>395.13</ele>
        <time>2018-10-18T04:09:38Z</time>
      </trkpt>
      <trkpt lat="45.07045" lon="5.63748">
        <ele>395.4</ele>
        <time>2018-10-18T04:09:50Z</time>
      </trkpt>
      <trkpt lat="45.07065" lon="5.63758">
        <ele>395.68</ele>
        <time>2018-10-18T04:10:02Z</time>
      </trkpt>
      <trkpt lat="45.07084" lon="5.63763">
        <ele>395.96</ele>
        <time>2018-10-18T04:10:14Z</time>
      </trkpt>
      <trkpt lat="45.07103" lon="5.63771">
        <ele>396.26</ele>
        <time>2018-10-18T04:10:28Z</time>
      </trkpt>
      <trkpt lat="45.07124" lon="5.63777">
        <ele>396.45</ele>
        <time>2018-10-18T04:10:40Z</time>
      </trkpt>
      <trkpt lat="45.07143" lon="5.63778">
        <ele>396.64</ele>
        <time>2018-10-18T04:10:52Z</time>
      </trkpt>
      <trkpt lat="45.07162" lon="5.63776">
        <ele>396.86</ele>
        <time>2018-10-18T04:11:04Z</time>
      </trkpt>
      <trkpt lat="45.07181" lon="5.63774">
        <ele>397.39</ele>
        <time>2018-10-18T04:11:30Z</time>
      </trkpt>
      <trkpt lat="45.07192" lon="5.63754">
        <ele>398.13</ele>
        <time>2018-10-18T04:11:54Z</time>
      </trkpt>
      <trkpt lat="45.07189" lon="5.63726">
        <ele>398.92</ele>
        <time>2018-10-18T04:12:06Z</time>
      </trkpt>
      <trkpt lat="45.07196" lon="5.63699">
        <ele>399.96</ele>
        <time>2018-10-18T04:12:18Z</time>
      </trkpt>
      <trkpt lat="45.07205" lon="5.63677">
        <ele>401.16</ele>
        <time>2018-10-18T04:12:32Z</time>
      </trkpt>
      <trkpt lat="45.07215" lon="5.63653">
        <ele>402.86</ele>
        <time>2018-10-18T04:12:54Z</time>
      </trkpt>
      <trkpt lat="45.07228" lon="5.63634">
        <ele>403.96</ele>
        <time>2018-10-18T04:13:10Z</time>
      </trkpt>
      <trkpt lat="45.07243" lon="5.63619">
        <ele>404.76</ele>
        <time>2018-10-18T04:13:22Z</time>
      </trkpt>
      <trkpt lat="45.07259" lon="5.63606">
        <ele>406.45</ele>
        <time>2018-10-18T04:13:40Z</time>
      </trkpt>
      <trkpt lat="45.07276" lon="5.63596">
        <ele>408.19</ele>
        <time>2018-10-18T04:13:53Z</time>
      </trkpt>
      <trkpt lat="45.07293" lon="5.63581">
        <ele>410.51</ele>
        <time>2018-10-18T04:14:07Z</time>
      </trkpt>
      <trkpt lat="45.07311" lon="5.6357">
        <ele>415.98</ele>
        <time>2018-10-18T04:14:36Z</time>
      </trkpt>
      <trkpt lat="45.07327" lon="5.63584">
        <ele>419.74</ele>
        <time>2018-10-18T04:14:52Z</time>
      </trkpt>
      <trkpt lat="45.07341" lon="5.63601">
        <ele>424.41</ele>
        <time>2018-10-18T04:15:12Z</time>
      </trkpt>
      <trkpt lat="45.07354" lon="5.63621">
        <ele>428.05</ele>
        <time>2018-10-18T04:15:28Z</time>
      </trkpt>
      <trkpt lat="45.0736" lon="5.63647">
        <ele>431.6</ele>
        <time>2018-10-18T04:15:44Z</time>
      </trkpt>
      <trkpt lat="45.07369" lon="5.6367">
        <ele>434.71</ele>
        <time>2018-10-18T04:15:58Z</time>
      </trkpt>
      <trkpt lat="45.07387" lon="5.63683">
        <ele>439.09</ele>
        <time>2018-10-18T04:16:18Z</time>
      </trkpt>
      <trkpt lat="45.07407" lon="5.6368">
        <ele>442.66</ele>
        <time>2018-10-18T04:16:34Z</time>
      </trkpt>
      <trkpt lat="45.07429" lon="5.63676">
        <ele>449.52</ele>
        <time>2018-10-18T04:17:03Z</time>
      </trkpt>
      <trkpt lat="45.07436" lon="5.63701">
        <ele>453.46</ele>
        <time>2018-10-18T04:17:20Z</time>
      </trkpt>
      <trkpt lat="45.07447" lon="5.63722">
        <ele>457.62</ele>
        <time>2018-10-18T04:17:38Z</time>
      </trkpt>
      <trkpt lat="45.07462" lon="5.63737">
        <ele>464.12</ele>
        <time>2018-10-18T04:18:00Z</time>
      </trkpt>
      <trkpt lat="45.07477" lon="5.63755">
        <ele>471.66</ele>
        <time>2018-10-18T04:18:26Z</time>
      </trkpt>
      <trkpt lat="45.0749" lon="5.63779">
        <ele>477.65</ele>
        <time>2018-10-18T04:18:43Z</time>
      </trkpt>
      <trkpt lat="45.07496" lon="5.63751">
        <ele>494.49</ele>
        <time>2018-10-18T04:19:27Z</time>
      </trkpt>
      <trkpt lat="45.075" lon="5.63725">
        <ele>504.41</ele>
        <time>2018-10-18T04:19:55Z</time>
      </trkpt>
      <trkpt lat="45.07502" lon="5.63698">
        <ele>513.76</ele>
        <time>2018-10-18T04:20:23Z</time>
      </trkpt>
      <trkpt lat="45.07521" lon="5.637">
        <ele>517.35</ele>
        <time>2018-10-18T04:20:35Z</time>
      </trkpt>
      <trkpt lat="45.07539" lon="5.6371">
        <ele>522.79</ele>
        <time>2018-10-18T04:20:55Z</time>
      </trkpt>
      <trkpt lat="45.07551" lon="5.63687">
        <ele>527.99</ele>
        <time>2018-10-18T04:21:15Z</time>
      </trkpt>
      <trkpt lat="45.07559" lon="5.63664">
        <ele>534.28</ele>
        <time>2018-10-18T04:21:37Z</time>
      </trkpt>
      <trkpt lat="45.07565" lon="5.6364">
        <ele>542.52</ele>
        <time>2018-10-18T04:22:06Z</time>
      </trkpt>
      <trkpt lat="45.07572" lon="5.63612">
        <ele>549.86</ele>
        <time>2018-10-18T04:22:28Z</time>
      </trkpt>
      <trkpt lat="45.07564" lon="5.63588">
        <ele>555.33</ele>
        <time>2018-10-18T04:22:53Z</time>
      </trkpt>
      <trkpt lat="45.07569" lon="5.63563">
        <ele>560.2</ele>
        <time>2018-10-18T04:23:13Z</time>
      </trkpt>
      <trkpt lat="45.07561" lon="5.63537">
        <ele>565.76</ele>
        <time>2018-10-18T04:23:32Z</time>
      </trkpt>
      <trkpt lat="45.07571" lon="5.63513">
        <ele>572.86</ele>
        <time>2018-10-18T04:23:53Z</time>
      </trkpt>
      <trkpt lat="45.07582" lon="5.63491">
        <ele>578.58</ele>
        <time>2018-10-18T04:24:11Z</time>
      </trkpt>
      <trkpt lat="45.07583" lon="5.63464">
        <ele>582.8</ele>
        <time>2018-10-18T04:24:24Z</time>
      </trkpt>
      <trkpt lat="45.07586" lon="5.63437">
        <ele>591.08</ele>
        <time>2018-10-18T04:24:53Z</time>
      </trkpt>
      <trkpt lat="45.07592" lon="5.63412">
        <ele>595.55</ele>
        <time>2018-10-18T04:25:08Z</time>
      </trkpt>
      <trkpt lat="45.0761" lon="5.63405">
        <ele>601.83</ele>
        <time>2018-10-18T04:25:29Z</time>
      </trkpt>
      <trkpt lat="45.07625" lon="5.63389">
        <ele>605.91</ele>
        <time>2018-10-18T04:25:42Z</time>
      </trkpt>
      <trkpt lat="45.07642" lon="5.63403">
        <ele>610.89</ele>
        <time>2018-10-18T04:25:58Z</time>
      </trkpt>
      <trkpt lat="45.0766" lon="5.63408">
        <ele>620.12</ele>
        <time>2018-10-18T04:26:24Z</time>
      </trkpt>
      <trkpt lat="45.07674" lon="5.63424">
        <ele>632.87</ele>
        <time>2018-10-18T04:27:07Z</time>
      </trkpt>
      <trkpt lat="45.0769" lon="5.63439">
        <ele>639.26</ele>
        <time>2018-10-18T04:27:27Z</time>
      </trkpt>
      <trkpt lat="45.07702" lon="5.63458">
        <ele>655.51</ele>
        <time>2018-10-18T04:28:03Z</time>
      </trkpt>
      <trkpt lat="45.07711" lon="5.63481">
        <ele>658.11</ele>
        <time>2018-10-18T04:28:29Z</time>
      </trkpt>
      <trkpt lat="45.07729" lon="5.63485">
        <ele>664</ele>
        <time>2018-10-18T04:28:55Z</time>
      </trkpt>
      <trkpt lat="45.07739" lon="5.63507">
        <ele>679.04</ele>
        <time>2018-10-18T04:29:39Z</time>
      </trkpt>
      <trkpt lat="45.07745" lon="5.63483">
        <ele>688.54</ele>
        <time>2018-10-18T04:30:18Z</time>
      </trkpt>
      <trkpt lat="45.07764" lon="5.63472">
        <ele>701.31</ele>
        <time>2018-10-18T04:31:07Z</time>
      </trkpt>
      <trkpt lat="45.07784" lon="5.63477">
        <ele>707.33</ele>
        <time>2018-10-18T04:31:23Z</time>
      </trkpt>
      <trkpt lat="45.07795" lon="5.63455">
        <ele>714.95</ele>
        <time>2018-10-18T04:31:47Z</time>
      </trkpt>
      <trkpt lat="45.07802" lon="5.6343">
        <ele>720.68</ele>
        <time>2018-10-18T04:32:07Z</time>
      </trkpt>
      <trkpt lat="45.07809" lon="5.63404">
        <ele>725.46</ele>
        <time>2018-10-18T04:32:25Z</time>
      </trkpt>
      <trkpt lat="45.07824" lon="5.63388">
        <ele>730.6</ele>
        <time>2018-10-18T04:32:47Z</time>
      </trkpt>
      <trkpt lat="45.07836" lon="5.63367">
        <ele>734.44</ele>
        <time>2018-10-18T04:33:05Z</time>
      </trkpt>
      <trkpt lat="45.07853" lon="5.63382">
        <ele>740.92</ele>
        <time>2018-10-18T04:33:28Z</time>
      </trkpt>
      <trkpt lat="45.07843" lon="5.63408">
        <ele>742.9</ele>
        <time>2018-10-18T04:33:44Z</time>
      </trkpt>
      <trkpt lat="45.0786" lon="5.63417">
        <ele>747.59</ele>
        <time>2018-10-18T04:34:08Z</time>
      </trkpt>
      <trkpt lat="45.0788" lon="5.63418">
        <ele>763.52</ele>
        <time>2018-10-18T04:34:35Z</time>
      </trkpt>
      <trkpt lat="45.07896" lon="5.63429">
        <ele>766.75</ele>
        <time>2018-10-18T04:34:55Z</time>
      </trkpt>
      <trkpt lat="45.07899" lon="5.63404">
        <ele>780.37</ele>
        <time>2018-10-18T04:35:51Z</time>
      </trkpt>
      <trkpt lat="45.07886" lon="5.63384">
        <ele>785.79</ele>
        <time>2018-10-18T04:36:09Z</time>
      </trkpt>
      <trkpt lat="45.07875" lon="5.63363">
        <ele>792.65</ele>
        <time>2018-10-18T04:36:31Z</time>
      </trkpt>
      <trkpt lat="45.07876" lon="5.63336">
        <ele>799.64</ele>
        <time>2018-10-18T04:36:55Z</time>
      </trkpt>
      <trkpt lat="45.07862" lon="5.63316">
        <ele>805.52</ele>
        <time>2018-10-18T04:37:15Z</time>
      </trkpt>
      <trkpt lat="45.07855" lon="5.63292">
        <ele>810.52</ele>
        <time>2018-10-18T04:37:33Z</time>
      </trkpt>
      <trkpt lat="45.07841" lon="5.63271">
        <ele>816.65</ele>
        <time>2018-10-18T04:37:56Z</time>
      </trkpt>
      <trkpt lat="45.07836" lon="5.63246">
        <ele>819.82</ele>
        <time>2018-10-18T04:38:08Z</time>
      </trkpt>
      <trkpt lat="45.07842" lon="5.6322">
        <ele>824.25</ele>
        <time>2018-10-18T04:38:26Z</time>
      </trkpt>
      <trkpt lat="45.07853" lon="5.63196">
        <ele>827.23</ele>
        <time>2018-10-18T04:38:40Z</time>
      </trkpt>
      <trkpt lat="45.07858" lon="5.63167">
        <ele>832.89</ele>
        <time>2018-10-18T04:39:05Z</time>
      </trkpt>
      <trkpt lat="45.0786" lon="5.63141">
        <ele>836.75</ele>
        <time>2018-10-18T04:39:28Z</time>
      </trkpt>
      <trkpt lat="45.07845" lon="5.63126">
        <ele>841.64</ele>
        <time>2018-10-18T04:39:52Z</time>
      </trkpt>
      <trkpt lat="45.07849" lon="5.63099">
        <ele>844.74</ele>
        <time>2018-10-18T04:40:08Z</time>
      </trkpt>
      <trkpt lat="45.07848" lon="5.63072">
        <ele>848.82</ele>
        <time>2018-10-18T04:40:28Z</time>
      </trkpt>
      <trkpt lat="45.0783" lon="5.63059">
        <ele>853.04</ele>
        <time>2018-10-18T04:40:48Z</time>
      </trkpt>
      <trkpt lat="45.07815" lon="5.63047">
        <ele>856.72</ele>
        <time>2018-10-18T04:41:02Z</time>
      </trkpt>
      <trkpt lat="45.07798" lon="5.63035">
        <ele>862.52</ele>
        <time>2018-10-18T04:41:21Z</time>
      </trkpt>
      <trkpt lat="45.078" lon="5.63004">
        <ele>872.69</ele>
        <time>2018-10-18T04:41:48Z</time>
      </trkpt>
      <trkpt lat="45.07805" lon="5.62977">
        <ele>874.95</ele>
        <time>2018-10-18T04:41:58Z</time>
      </trkpt>
      <trkpt lat="45.07792" lon="5.62953">
        <ele>876.36</ele>
        <time>2018-10-18T04:42:08Z</time>
      </trkpt>
      <trkpt lat="45.07777" lon="5.62937">
        <ele>881.39</ele>
        <time>2018-10-18T04:42:26Z</time>
      </trkpt>
      <trkpt lat="45.07768" lon="5.62912">
        <ele>889.54</ele>
        <time>2018-10-18T04:42:41Z</time>
      </trkpt>
      <trkpt lat="45.07764" lon="5.62887">
        <ele>893.16</ele>
        <time>2018-10-18T04:42:55Z</time>
      </trkpt>
      <trkpt lat="45.07761" lon="5.6286">
        <ele>893.57</ele>
        <time>2018-10-18T04:43:09Z</time>
      </trkpt>
      <trkpt lat="45.07759" lon="5.62834">
        <ele>893.81</ele>
        <time>2018-10-18T04:43:30Z</time>
      </trkpt>
      <trkpt lat="45.07747" lon="5.62808">
        <ele>894.64</ele>
        <time>2018-10-18T04:43:49Z</time>
      </trkpt>
      <trkpt lat="45.07734" lon="5.6279">
        <ele>896.38</ele>
        <time>2018-10-18T04:44:04Z</time>
      </trkpt>
      <trkpt lat="45.07723" lon="5.62769">
        <ele>899.18</ele>
        <time>2018-10-18T04:44:23Z</time>
      </trkpt>
      <trkpt lat="45.07725" lon="5.62743">
        <ele>901.87</ele>
        <time>2018-10-18T04:44:41Z</time>
      </trkpt>
      <trkpt lat="45.07728" lon="5.62717">
        <ele>904.38</ele>
        <time>2018-10-18T04:45:01Z</time>
      </trkpt>
      <trkpt lat="45.07722" lon="5.62693">
        <ele>908.92</ele>
        <time>2018-10-18T04:45:35Z</time>
      </trkpt>
      <trkpt lat="45.07712" lon="5.62672">
        <ele>911.11</ele>
        <time>2018-10-18T04:45:51Z</time>
      </trkpt>
      <trkpt lat="45.07723" lon="5.62647">
        <ele>912.81</ele>
        <time>2018-10-18T04:46:05Z</time>
      </trkpt>
      <trkpt lat="45.07722" lon="5.62619">
        <ele>914.69</ele>
        <time>2018-10-18T04:46:20Z</time>
      </trkpt>
      <trkpt lat="45.07733" lon="5.62595">
        <ele>916.37</ele>
        <time>2018-10-18T04:46:32Z</time>
      </trkpt>
      <trkpt lat="45.07734" lon="5.62569">
        <ele>919.32</ele>
        <time>2018-10-18T04:46:54Z</time>
      </trkpt>
      <trkpt lat="45.07721" lon="5.62549">
        <ele>922.01</ele>
        <time>2018-10-18T04:47:16Z</time>
      </trkpt>
      <trkpt lat="45.07712" lon="5.62526">
        <ele>924.33</ele>
        <time>2018-10-18T04:47:32Z</time>
      </trkpt>
      <trkpt lat="45.07706" lon="5.62501">
        <ele>926.38</ele>
        <time>2018-10-18T04:47:46Z</time>
      </trkpt>
      <trkpt lat="45.07713" lon="5.62476">
        <ele>928.98</ele>
        <time>2018-10-18T04:48:02Z</time>
      </trkpt>
      <trkpt lat="45.07722" lon="5.62452">
        <ele>932.76</ele>
        <time>2018-10-18T04:48:24Z</time>
      </trkpt>
      <trkpt lat="45.0778" lon="5.62447">
        <ele>941.96</ele>
        <time>2018-10-18T04:50:11Z</time>
      </trkpt>
      <trkpt lat="45.07798" lon="5.62436">
        <ele>944.71</ele>
        <time>2018-10-18T04:50:18Z</time>
      </trkpt>
      <trkpt lat="45.07813" lon="5.62451">
        <ele>945.63</ele>
        <time>2018-10-18T04:50:37Z</time>
      </trkpt>
      <trkpt lat="45.07831" lon="5.62467">
        <ele>946.83</ele>
        <time>2018-10-18T04:50:59Z</time>
      </trkpt>
      <trkpt lat="45.07839" lon="5.62491">
        <ele>943.66</ele>
        <time>2018-10-18T04:51:16Z</time>
      </trkpt>
      <trkpt lat="45.07855" lon="5.62511">
        <ele>940.87</ele>
        <time>2018-10-18T04:51:31Z</time>
      </trkpt>
      <trkpt lat="45.07875" lon="5.62529">
        <ele>944.28</ele>
        <time>2018-10-18T04:52:00Z</time>
      </trkpt>
      <trkpt lat="45.07882" lon="5.62556">
        <ele>943.93</ele>
        <time>2018-10-18T04:52:17Z</time>
      </trkpt>
      <trkpt lat="45.07885" lon="5.62582">
        <ele>945.17</ele>
        <time>2018-10-18T04:52:45Z</time>
      </trkpt>
      <trkpt lat="45.07891" lon="5.62609">
        <ele>953.2</ele>
        <time>2018-10-18T04:53:09Z</time>
      </trkpt>
      <trkpt lat="45.07892" lon="5.62635">
        <ele>960.44</ele>
        <time>2018-10-18T04:53:33Z</time>
      </trkpt>
      <trkpt lat="45.07908" lon="5.62652">
        <ele>980.07</ele>
        <time>2018-10-18T04:54:10Z</time>
      </trkpt>
      <trkpt lat="45.07909" lon="5.62677">
        <ele>985.03</ele>
        <time>2018-10-18T04:54:34Z</time>
      </trkpt>
      <trkpt lat="45.0791" lon="5.62706">
        <ele>991.15</ele>
        <time>2018-10-18T04:55:05Z</time>
      </trkpt>
      <trkpt lat="45.07917" lon="5.62734">
        <ele>998.98</ele>
        <time>2018-10-18T04:55:26Z</time>
      </trkpt>
      <trkpt lat="45.07918" lon="5.62762">
        <ele>1007.5</ele>
        <time>2018-10-18T04:56:17Z</time>
      </trkpt>
      <trkpt lat="45.07921" lon="5.62736">
        <ele>1015.29</ele>
        <time>2018-10-18T04:56:57Z</time>
      </trkpt>
      <trkpt lat="45.07929" lon="5.62701">
        <ele>1020.97</ele>
        <time>2018-10-18T04:57:12Z</time>
      </trkpt>
      <trkpt lat="45.07938" lon="5.62674">
        <ele>1026.5</ele>
        <time>2018-10-18T04:57:29Z</time>
      </trkpt>
      <trkpt lat="45.07953" lon="5.62657">
        <ele>1060.48</ele>
        <time>2018-10-18T04:58:22Z</time>
      </trkpt>
      <trkpt lat="45.07972" lon="5.62648">
        <ele>1070.85</ele>
        <time>2018-10-18T04:58:54Z</time>
      </trkpt>
      <trkpt lat="45.07989" lon="5.6264">
        <ele>1087.3</ele>
        <time>2018-10-18T04:59:20Z</time>
      </trkpt>
      <trkpt lat="45.08007" lon="5.62648">
        <ele>1102.27</ele>
        <time>2018-10-18T04:59:48Z</time>
      </trkpt>
      <trkpt lat="45.08027" lon="5.62653">
        <ele>1111.68</ele>
        <time>2018-10-18T05:00:04Z</time>
      </trkpt>
      <trkpt lat="45.08044" lon="5.62663">
        <ele>1115.98</ele>
        <time>2018-10-18T05:00:22Z</time>
      </trkpt>
      <trkpt lat="45.08061" lon="5.62677">
        <ele>1121.87</ele>
        <time>2018-10-18T05:00:35Z</time>
      </trkpt>
      <trkpt lat="45.08081" lon="5.62679">
        <ele>1133.9</ele>
        <time>2018-10-18T05:01:31Z</time>
      </trkpt>
      <trkpt lat="45.08099" lon="5.62669">
        <ele>1140.08</ele>
        <time>2018-10-18T05:02:00Z</time>
      </trkpt>
      <trkpt lat="45.08116" lon="5.62657">
        <ele>1143.56</ele>
        <time>2018-10-18T05:02:24Z</time>
      </trkpt>
      <trkpt lat="45.08122" lon="5.62683">
        <ele>1144.15</ele>
        <time>2018-10-18T05:02:44Z</time>
      </trkpt>
      <trkpt lat="45.08127" lon="5.6271">
        <ele>1144.78</ele>
        <time>2018-10-18T05:03:00Z</time>
      </trkpt>
      <trkpt lat="45.08143" lon="5.627">
        <ele>1146.52</ele>
        <time>2018-10-18T05:03:23Z</time>
      </trkpt>
      <trkpt lat="45.08153" lon="5.62674">
        <ele>1146.76</ele>
        <time>2018-10-18T05:03:35Z</time>
      </trkpt>
      <trkpt lat="45.08138" lon="5.62694">
        <ele>1147</ele>
        <time>2018-10-18T05:03:41Z</time>
      </trkpt>
      <trkpt lat="45.08142" lon="5.62666">
        <ele>1155.33</ele>
        <time>2018-10-18T05:05:15Z</time>
      </trkpt>
      <trkpt lat="45.08139" lon="5.6264">
        <ele>1157.17</ele>
        <time>2018-10-18T05:05:32Z</time>
      </trkpt>
      <trkpt lat="45.08133" lon="5.62613">
        <ele>1159.69</ele>
        <time>2018-10-18T05:05:42Z</time>
      </trkpt>
      <trkpt lat="45.08133" lon="5.62586">
        <ele>1167.12</ele>
        <time>2018-10-18T05:06:10Z</time>
      </trkpt>
      <trkpt lat="45.08144" lon="5.62563">
        <ele>1175.7</ele>
        <time>2018-10-18T05:06:30Z</time>
      </trkpt>
      <trkpt lat="45.08163" lon="5.62547">
        <ele>1179.27</ele>
        <time>2018-10-18T05:06:51Z</time>
      </trkpt>
      <trkpt lat="45.08171" lon="5.62519">
        <ele>1180.02</ele>
        <time>2018-10-18T05:07:07Z</time>
      </trkpt>
      <trkpt lat="45.08189" lon="5.62511">
        <ele>1183.41</ele>
        <time>2018-10-18T05:07:30Z</time>
      </trkpt>
      <trkpt lat="45.08205" lon="5.625">
        <ele>1185.58</ele>
        <time>2018-10-18T05:07:43Z</time>
      </trkpt>
      <trkpt lat="45.08178" lon="5.62465">
        <ele>1191.39</ele>
        <time>2018-10-18T05:08:25Z</time>
      </trkpt>
      <trkpt lat="45.08187" lon="5.62437">
        <ele>1194.53</ele>
        <time>2018-10-18T05:08:45Z</time>
      </trkpt>
      <trkpt lat="45.08192" lon="5.62406">
        <ele>1196.81</ele>
        <time>2018-10-18T05:08:59Z</time>
      </trkpt>
      <trkpt lat="45.08201" lon="5.62381">
        <ele>1202.07</ele>
        <time>2018-10-18T05:09:19Z</time>
      </trkpt>
      <trkpt lat="45.08208" lon="5.62353">
        <ele>1216.34</ele>
        <time>2018-10-18T05:09:37Z</time>
      </trkpt>
      <trkpt lat="45.08222" lon="5.62336">
        <ele>1218.69</ele>
        <time>2018-10-18T05:09:57Z</time>
      </trkpt>
      <trkpt lat="45.08234" lon="5.62316">
        <ele>1230.88</ele>
        <time>2018-10-18T05:11:04Z</time>
      </trkpt>
      <trkpt lat="45.08238" lon="5.6229">
        <ele>1233</ele>
        <time>2018-10-18T05:11:19Z</time>
      </trkpt>
      <trkpt lat="45.08249" lon="5.62263">
        <ele>1245.55</ele>
        <time>2018-10-18T05:11:41Z</time>
      </trkpt>
      <trkpt lat="45.08258" lon="5.62239">
        <ele>1248.4</ele>
        <time>2018-10-18T05:12:03Z</time>
      </trkpt>
      <trkpt lat="45.0827" lon="5.62218">
        <ele>1259.15</ele>
        <time>2018-10-18T05:12:41Z</time>
      </trkpt>
      <trkpt lat="45.08269" lon="5.62192">
        <ele>1264.31</ele>
        <time>2018-10-18T05:13:07Z</time>
      </trkpt>
      <trkpt lat="45.08261" lon="5.62164">
        <ele>1265.94</ele>
        <time>2018-10-18T05:13:24Z</time>
      </trkpt>
      <trkpt lat="45.08274" lon="5.62144">
        <ele>1272.96</ele>
        <time>2018-10-18T05:13:55Z</time>
      </trkpt>
      <trkpt lat="45.08289" lon="5.62123">
        <ele>1281.55</ele>
        <time>2018-10-18T05:14:33Z</time>
      </trkpt>
      <trkpt lat="45.08284" lon="5.62097">
        <ele>1282.54</ele>
        <time>2018-10-18T05:14:56Z</time>
      </trkpt>
      <trkpt lat="45.08282" lon="5.62072">
        <ele>1283.51</ele>
        <time>2018-10-18T05:15:04Z</time>
      </trkpt>
      <trkpt lat="45.08269" lon="5.6205">
        <ele>1286.62</ele>
        <time>2018-10-18T05:15:33Z</time>
      </trkpt>
      <trkpt lat="45.08253" lon="5.62034">
        <ele>1286.03</ele>
        <time>2018-10-18T05:15:44Z</time>
      </trkpt>
      <trkpt lat="45.08235" lon="5.62028">
        <ele>1285.89</ele>
        <time>2018-10-18T05:15:50Z</time>
      </trkpt>
      <trkpt lat="45.08219" lon="5.62013">
        <ele>1288.5</ele>
        <time>2018-10-18T05:16:02Z</time>
      </trkpt>
      <trkpt lat="45.08216" lon="5.61987">
        <ele>1300.64</ele>
        <time>2018-10-18T05:16:44Z</time>
      </trkpt>
      <trkpt lat="45.0823" lon="5.61968">
        <ele>1315.29</ele>
        <time>2018-10-18T05:17:17Z</time>
      </trkpt>
      <trkpt lat="45.08247" lon="5.61952">
        <ele>1329.1</ele>
        <time>2018-10-18T05:17:49Z</time>
      </trkpt>
      <trkpt lat="45.0826" lon="5.6193">
        <ele>1335.71</ele>
        <time>2018-10-18T05:18:20Z</time>
      </trkpt>
      <trkpt lat="45.08263" lon="5.61904">
        <ele>1346.93</ele>
        <time>2018-10-18T05:19:00Z</time>
      </trkpt>
      <trkpt lat="45.08281" lon="5.61893">
        <ele>1355.27</ele>
        <time>2018-10-18T05:19:22Z</time>
      </trkpt>
      <trkpt lat="45.08292" lon="5.61873">
        <ele>1362.84</ele>
        <time>2018-10-18T05:19:52Z</time>
      </trkpt>
      <trkpt lat="45.08305" lon="5.61855">
        <ele>1370.85</ele>
        <time>2018-10-18T05:20:18Z</time>
      </trkpt>
      <trkpt lat="45.08291" lon="5.61836">
        <ele>1387.85</ele>
        <time>2018-10-18T05:20:51Z</time>
      </trkpt>
      <trkpt lat="45.08283" lon="5.61813">
        <ele>1390.35</ele>
        <time>2018-10-18T05:21:11Z</time>
      </trkpt>
      <trkpt lat="45.08263" lon="5.61805">
        <ele>1391.88</ele>
        <time>2018-10-18T05:21:31Z</time>
      </trkpt>
      <trkpt lat="45.08264" lon="5.61777">
        <ele>1396.26</ele>
        <time>2018-10-18T05:22:06Z</time>
      </trkpt>
      <trkpt lat="45.08252" lon="5.61756">
        <ele>1400.54</ele>
        <time>2018-10-18T05:22:46Z</time>
      </trkpt>
      <trkpt lat="45.08237" lon="5.61771">
        <ele>1407.47</ele>
        <time>2018-10-18T05:23:06Z</time>
      </trkpt>
      <trkpt lat="45.08222" lon="5.61789">
        <ele>1411.35</ele>
        <time>2018-10-18T05:23:26Z</time>
      </trkpt>
      <trkpt lat="45.08206" lon="5.61777">
        <ele>1414.75</ele>
        <time>2018-10-18T05:23:36Z</time>
      </trkpt>
      <trkpt lat="45.08206" lon="5.61748">
        <ele>1428.38</ele>
        <time>2018-10-18T05:23:58Z</time>
      </trkpt>
      <trkpt lat="45.08201" lon="5.61723">
        <ele>1439.34</ele>
        <time>2018-10-18T05:24:22Z</time>
      </trkpt>
      <trkpt lat="45.08206" lon="5.61695">
        <ele>1444.12</ele>
        <time>2018-10-18T05:24:41Z</time>
      </trkpt>
      <trkpt lat="45.08219" lon="5.61673">
        <ele>1450.15</ele>
        <time>2018-10-18T05:25:11Z</time>
      </trkpt>
      <trkpt lat="45.08234" lon="5.61655">
        <ele>1455.15</ele>
        <time>2018-10-18T05:25:35Z</time>
      </trkpt>
      <trkpt lat="45.08244" lon="5.61622">
        <ele>1471.46</ele>
        <time>2018-10-18T05:26:26Z</time>
      </trkpt>
      <trkpt lat="45.08254" lon="5.61601">
        <ele>1484.34</ele>
        <time>2018-10-18T05:26:56Z</time>
      </trkpt>
      <trkpt lat="45.08236" lon="5.61605">
        <ele>1507.99</ele>
        <time>2018-10-18T05:28:16Z</time>
      </trkpt>
      <trkpt lat="45.08217" lon="5.61609">
        <ele>1511.06</ele>
        <time>2018-10-18T05:28:34Z</time>
      </trkpt>
      <trkpt lat="45.08197" lon="5.61614">
        <ele>1512.79</ele>
        <time>2018-10-18T05:28:46Z</time>
      </trkpt>
      <trkpt lat="45.08177" lon="5.6161">
        <ele>1514.68</ele>
        <time>2018-10-18T05:28:58Z</time>
      </trkpt>
      <trkpt lat="45.08157" lon="5.6161">
        <ele>1518.09</ele>
        <time>2018-10-18T05:29:12Z</time>
      </trkpt>
      <trkpt lat="45.08147" lon="5.61588">
        <ele>1525.46</ele>
        <time>2018-10-18T05:29:37Z</time>
      </trkpt>
      <trkpt lat="45.08129" lon="5.61586">
        <ele>1531.75</ele>
        <time>2018-10-18T05:29:57Z</time>
      </trkpt>
      <trkpt lat="45.08131" lon="5.61561">
        <ele>1541.11</ele>
        <time>2018-10-18T05:30:25Z</time>
      </trkpt>
      <trkpt lat="45.08124" lon="5.61536">
        <ele>1554.55</ele>
        <time>2018-10-18T05:31:05Z</time>
      </trkpt>
      <trkpt lat="45.08132" lon="5.61511">
        <ele>1561</ele>
        <time>2018-10-18T05:31:31Z</time>
      </trkpt>
      <trkpt lat="45.08129" lon="5.61481">
        <ele>1567.75</ele>
        <time>2018-10-18T05:32:03Z</time>
      </trkpt>
      <trkpt lat="45.08131" lon="5.61455">
        <ele>1577.94</ele>
        <time>2018-10-18T05:32:47Z</time>
      </trkpt>
      <trkpt lat="45.08133" lon="5.61429">
        <ele>1584.35</ele>
        <time>2018-10-18T05:33:13Z</time>
      </trkpt>
      <trkpt lat="45.08116" lon="5.6142">
        <ele>1594.39</ele>
        <time>2018-10-18T05:33:53Z</time>
      </trkpt>
      <trkpt lat="45.08099" lon="5.61407">
        <ele>1600.36</ele>
        <time>2018-10-18T05:34:15Z</time>
      </trkpt>
      <trkpt lat="45.08106" lon="5.61379">
        <ele>1613.59</ele>
        <time>2018-10-18T05:35:17Z</time>
      </trkpt>
      <trkpt lat="45.0809" lon="5.61367">
        <ele>1623.07</ele>
        <time>2018-10-18T05:35:47Z</time>
      </trkpt>
      <trkpt lat="45.08106" lon="5.61355">
        <ele>1629.97</ele>
        <time>2018-10-18T05:36:17Z</time>
      </trkpt>
      <trkpt lat="45.08124" lon="5.61349">
        <ele>1632.56</ele>
        <time>2018-10-18T05:36:30Z</time>
      </trkpt>
      <trkpt lat="45.08142" lon="5.61339">
        <ele>1634.76</ele>
        <time>2018-10-18T05:36:42Z</time>
      </trkpt>
      <trkpt lat="45.08161" lon="5.61334">
        <ele>1637.63</ele>
        <time>2018-10-18T05:36:58Z</time>
      </trkpt>
      <trkpt lat="45.0818" lon="5.61328">
        <ele>1641.48</ele>
        <time>2018-10-18T05:37:20Z</time>
      </trkpt>
      <trkpt lat="45.08198" lon="5.61331">
        <ele>1645.78</ele>
        <time>2018-10-18T05:37:40Z</time>
      </trkpt>
      <trkpt lat="45.08216" lon="5.61328">
        <ele>1651.17</ele>
        <time>2018-10-18T05:38:04Z</time>
      </trkpt>
      <trkpt lat="45.08225" lon="5.61353">
        <ele>1654.75</ele>
        <time>2018-10-18T05:38:20Z</time>
      </trkpt>
      <trkpt lat="45.08243" lon="5.61362">
        <ele>1661.39</ele>
        <time>2018-10-18T05:38:40Z</time>
      </trkpt>
      <trkpt lat="45.08262" lon="5.6136">
        <ele>1668.66</ele>
        <time>2018-10-18T05:39:02Z</time>
      </trkpt>
      <trkpt lat="45.08281" lon="5.61358">
        <ele>1678.74</ele>
        <time>2018-10-18T05:39:44Z</time>
      </trkpt>
      <trkpt lat="45.083" lon="5.61361">
        <ele>1685.6</ele>
        <time>2018-10-18T05:40:08Z</time>
      </trkpt>
      <trkpt lat="45.08319" lon="5.6135">
        <ele>1691.59</ele>
        <time>2018-10-18T05:40:34Z</time>
      </trkpt>
      <trkpt lat="45.083" lon="5.61342">
        <ele>1707.49</ele>
        <time>2018-10-18T05:42:00Z</time>
      </trkpt>
      <trkpt lat="45.083" lon="5.61316">
        <ele>1730.88</ele>
        <time>2018-10-18T05:55:12Z</time>
      </trkpt>
      <trkpt lat="45.08292" lon="5.61339">
        <ele>1730.86</ele>
        <time>2018-10-18T05:56:42Z</time>
      </trkpt>
      <trkpt lat="45.08285" lon="5.61371">
        <ele>1730.23</ele>
        <time>2018-10-18T05:59:06Z</time>
      </trkpt>
      <trkpt lat="45.0827" lon="5.61405">
        <ele>1730.03</ele>
        <time>2018-10-18T05:59:10Z</time>
      </trkpt>
      <trkpt lat="45.08255" lon="5.61442">
        <ele>1729.81</ele>
        <time>2018-10-18T05:59:14Z</time>
      </trkpt>
      <trkpt lat="45.08242" lon="5.61481">
        <ele>1729.55</ele>
        <time>2018-10-18T05:59:18Z</time>
      </trkpt>
      <trkpt lat="45.08231" lon="5.61516">
        <ele>1729.23</ele>
        <time>2018-10-18T05:59:22Z</time>
      </trkpt>
      <trkpt lat="45.08208" lon="5.61527">
        <ele>1728.83</ele>
        <time>2018-10-18T05:59:26Z</time>
      </trkpt>
      <trkpt lat="45.08191" lon="5.6151">
        <ele>1728.66</ele>
        <time>2018-10-18T05:59:28Z</time>
      </trkpt>
      <trkpt lat="45.08171" lon="5.61537">
        <ele>1728.61</ele>
        <time>2018-10-18T05:59:34Z</time>
      </trkpt>
      <trkpt lat="45.08144" lon="5.61543">
        <ele>1728.37</ele>
        <time>2018-10-18T05:59:38Z</time>
      </trkpt>
      <trkpt lat="45.08128" lon="5.61586">
        <ele>1725.17</ele>
        <time>2018-10-18T05:59:42Z</time>
      </trkpt>
      <trkpt lat="45.08135" lon="5.61611">
        <ele>1721.47</ele>
        <time>2018-10-18T05:59:44Z</time>
      </trkpt>
      <trkpt lat="45.08157" lon="5.61635">
        <ele>1715.09</ele>
        <time>2018-10-18T05:59:48Z</time>
      </trkpt>
      <trkpt lat="45.08173" lon="5.61665">
        <ele>1708.78</ele>
        <time>2018-10-18T05:59:52Z</time>
      </trkpt>
      <trkpt lat="45.08183" lon="5.61702">
        <ele>1702.26</ele>
        <time>2018-10-18T05:59:56Z</time>
      </trkpt>
      <trkpt lat="45.08202" lon="5.61737">
        <ele>1693.09</ele>
        <time>2018-10-18T06:00:00Z</time>
      </trkpt>
      <trkpt lat="45.08221" lon="5.61763">
        <ele>1681.99</ele>
        <time>2018-10-18T06:00:04Z</time>
      </trkpt>
      <trkpt lat="45.08208" lon="5.61808">
        <ele>1673.33</ele>
        <time>2018-10-18T06:00:08Z</time>
      </trkpt>
      <trkpt lat="45.08188" lon="5.61809">
        <ele>1670.54</ele>
        <time>2018-10-18T06:00:10Z</time>
      </trkpt>
      <trkpt lat="45.08154" lon="5.61805">
        <ele>1666.66</ele>
        <time>2018-10-18T06:00:14Z</time>
      </trkpt>
      <trkpt lat="45.08127" lon="5.61818">
        <ele>1663.65</ele>
        <time>2018-10-18T06:00:18Z</time>
      </trkpt>
      <trkpt lat="45.08106" lon="5.61842">
        <ele>1659.75</ele>
        <time>2018-10-18T06:00:22Z</time>
      </trkpt>
      <trkpt lat="45.0808" lon="5.61837">
        <ele>1654.2</ele>
        <time>2018-10-18T06:00:26Z</time>
      </trkpt>
      <trkpt lat="45.08054" lon="5.61846">
        <ele>1645.97</ele>
        <time>2018-10-18T06:00:30Z</time>
      </trkpt>
      <trkpt lat="45.08029" lon="5.61877">
        <ele>1639.31</ele>
        <time>2018-10-18T06:00:34Z</time>
      </trkpt>
      <trkpt lat="45.0801" lon="5.61915">
        <ele>1633.12</ele>
        <time>2018-10-18T06:00:38Z</time>
      </trkpt>
      <trkpt lat="45.08001" lon="5.61955">
        <ele>1627.38</ele>
        <time>2018-10-18T06:00:42Z</time>
      </trkpt>
      <trkpt lat="45.0803" lon="5.61927">
        <ele>1622.86</ele>
        <time>2018-10-18T06:00:48Z</time>
      </trkpt>
      <trkpt lat="45.08052" lon="5.61938">
        <ele>1622.15</ele>
        <time>2018-10-18T06:00:52Z</time>
      </trkpt>
      <trkpt lat="45.08043" lon="5.61976">
        <ele>1616.62</ele>
        <time>2018-10-18T06:00:56Z</time>
      </trkpt>
      <trkpt lat="45.08027" lon="5.62015">
        <ele>1604.75</ele>
        <time>2018-10-18T06:01:00Z</time>
      </trkpt>
      <trkpt lat="45.08031" lon="5.62048">
        <ele>1595.51</ele>
        <time>2018-10-18T06:01:04Z</time>
      </trkpt>
      <trkpt lat="45.08039" lon="5.62072">
        <ele>1589.05</ele>
        <time>2018-10-18T06:01:08Z</time>
      </trkpt>
      <trkpt lat="45.0804" lon="5.62105">
        <ele>1582.59</ele>
        <time>2018-10-18T06:01:12Z</time>
      </trkpt>
      <trkpt lat="45.08037" lon="5.62135">
        <ele>1573.41</ele>
        <time>2018-10-18T06:01:16Z</time>
      </trkpt>
      <trkpt lat="45.0801" lon="5.62157">
        <ele>1562.54</ele>
        <time>2018-10-18T06:01:20Z</time>
      </trkpt>
      <trkpt lat="45.08004" lon="5.62196">
        <ele>1555.76</ele>
        <time>2018-10-18T06:01:24Z</time>
      </trkpt>
      <trkpt lat="45.08013" lon="5.62224">
        <ele>1548.68</ele>
        <time>2018-10-18T06:01:28Z</time>
      </trkpt>
      <trkpt lat="45.08014" lon="5.62257">
        <ele>1541.31</ele>
        <time>2018-10-18T06:01:32Z</time>
      </trkpt>
      <trkpt lat="45.08006" lon="5.62292">
        <ele>1531.49</ele>
        <time>2018-10-18T06:01:36Z</time>
      </trkpt>
      <trkpt lat="45.08014" lon="5.62319">
        <ele>1523.49</ele>
        <time>2018-10-18T06:01:40Z</time>
      </trkpt>
      <trkpt lat="45.07993" lon="5.62348">
        <ele>1515.47</ele>
        <time>2018-10-18T06:01:44Z</time>
      </trkpt>
      <trkpt lat="45.07976" lon="5.62331">
        <ele>1511.72</ele>
        <time>2018-10-18T06:01:46Z</time>
      </trkpt>
      <trkpt lat="45.07975" lon="5.62302">
        <ele>1508.67</ele>
        <time>2018-10-18T06:01:48Z</time>
      </trkpt>
      <trkpt lat="45.07991" lon="5.6227">
        <ele>1505.06</ele>
        <time>2018-10-18T06:01:52Z</time>
      </trkpt>
      <trkpt lat="45.07963" lon="5.62266">
        <ele>1504.16</ele>
        <time>2018-10-18T06:01:58Z</time>
      </trkpt>
      <trkpt lat="45.07939" lon="5.62344">
        <ele>1505.29</ele>
        <time>2018-10-18T06:02:02Z</time>
      </trkpt>
      <trkpt lat="45.07933" lon="5.62395">
        <ele>1503.35</ele>
        <time>2018-10-18T06:02:04Z</time>
      </trkpt>
      <trkpt lat="45.07927" lon="5.62429">
        <ele>1497.53</ele>
        <time>2018-10-18T06:02:06Z</time>
      </trkpt>
      <trkpt lat="45.07922" lon="5.62456">
        <ele>1490.62</ele>
        <time>2018-10-18T06:02:08Z</time>
      </trkpt>
      <trkpt lat="45.07904" lon="5.62489">
        <ele>1478.1</ele>
        <time>2018-10-18T06:02:12Z</time>
      </trkpt>
      <trkpt lat="45.0789" lon="5.62523">
        <ele>1469.71</ele>
        <time>2018-10-18T06:02:16Z</time>
      </trkpt>
      <trkpt lat="45.07903" lon="5.62547">
        <ele>1464.57</ele>
        <time>2018-10-18T06:02:20Z</time>
      </trkpt>
      <trkpt lat="45.07901" lon="5.62577">
        <ele>1456.55</ele>
        <time>2018-10-18T06:02:24Z</time>
      </trkpt>
      <trkpt lat="45.07882" lon="5.62588">
        <ele>1449.56</ele>
        <time>2018-10-18T06:02:26Z</time>
      </trkpt>
      <trkpt lat="45.07875" lon="5.62539">
        <ele>1438.7</ele>
        <time>2018-10-18T06:02:30Z</time>
      </trkpt>
      <trkpt lat="45.07837" lon="5.62524">
        <ele>1432.17</ele>
        <time>2018-10-18T06:02:37Z</time>
      </trkpt>
      <trkpt lat="45.07831" lon="5.62562">
        <ele>1435.12</ele>
        <time>2018-10-18T06:02:47Z</time>
      </trkpt>
      <trkpt lat="45.07797" lon="5.62576">
        <ele>1428.44</ele>
        <time>2018-10-18T06:02:51Z</time>
      </trkpt>
      <trkpt lat="45.07768" lon="5.62587">
        <ele>1406.57</ele>
        <time>2018-10-18T06:02:55Z</time>
      </trkpt>
      <trkpt lat="45.07741" lon="5.62598">
        <ele>1386.63</ele>
        <time>2018-10-18T06:02:59Z</time>
      </trkpt>
      <trkpt lat="45.07708" lon="5.62612">
        <ele>1371.88</ele>
        <time>2018-10-18T06:03:03Z</time>
      </trkpt>
      <trkpt lat="45.07676" lon="5.6261">
        <ele>1359.93</ele>
        <time>2018-10-18T06:03:07Z</time>
      </trkpt>
      <trkpt lat="45.07651" lon="5.62635">
        <ele>1351.07</ele>
        <time>2018-10-18T06:03:11Z</time>
      </trkpt>
      <trkpt lat="45.07631" lon="5.62669">
        <ele>1342.52</ele>
        <time>2018-10-18T06:03:15Z</time>
      </trkpt>
      <trkpt lat="45.07609" lon="5.62697">
        <ele>1332.89</ele>
        <time>2018-10-18T06:03:19Z</time>
      </trkpt>
      <trkpt lat="45.07594" lon="5.62723">
        <ele>1324.04</ele>
        <time>2018-10-18T06:03:23Z</time>
      </trkpt>
      <trkpt lat="45.07603" lon="5.62755">
        <ele>1316.8</ele>
        <time>2018-10-18T06:03:27Z</time>
      </trkpt>
      <trkpt lat="45.07622" lon="5.62778">
        <ele>1310.41</ele>
        <time>2018-10-18T06:03:31Z</time>
      </trkpt>
      <trkpt lat="45.07636" lon="5.62812">
        <ele>1305.42</ele>
        <time>2018-10-18T06:03:35Z</time>
      </trkpt>
      <trkpt lat="45.07623" lon="5.62853">
        <ele>1299.03</ele>
        <time>2018-10-18T06:03:39Z</time>
      </trkpt>
      <trkpt lat="45.07623" lon="5.62894">
        <ele>1291.28</ele>
        <time>2018-10-18T06:03:43Z</time>
      </trkpt>
      <trkpt lat="45.07641" lon="5.62907">
        <ele>1283.46</ele>
        <time>2018-10-18T06:03:47Z</time>
      </trkpt>
      <trkpt lat="45.07637" lon="5.62878">
        <ele>1278.96</ele>
        <time>2018-10-18T06:03:51Z</time>
      </trkpt>
      <trkpt lat="45.07661" lon="5.62875">
        <ele>1274.34</ele>
        <time>2018-10-18T06:04:00Z</time>
      </trkpt>
      <trkpt lat="45.07679" lon="5.62886">
        <ele>1269.91</ele>
        <time>2018-10-18T06:04:02Z</time>
      </trkpt>
      <trkpt lat="45.07698" lon="5.62885">
        <ele>1259.99</ele>
        <time>2018-10-18T06:04:06Z</time>
      </trkpt>
      <trkpt lat="45.077" lon="5.6285">
        <ele>1254.19</ele>
        <time>2018-10-18T06:04:10Z</time>
      </trkpt>
      <trkpt lat="45.07681" lon="5.62856">
        <ele>1251.91</ele>
        <time>2018-10-18T06:04:12Z</time>
      </trkpt>
      <trkpt lat="45.07667" lon="5.62833">
        <ele>1245.96</ele>
        <time>2018-10-18T06:04:16Z</time>
      </trkpt>
      <trkpt lat="45.07684" lon="5.6281">
        <ele>1242.82</ele>
        <time>2018-10-18T06:04:18Z</time>
      </trkpt>
      <trkpt lat="45.07705" lon="5.62816">
        <ele>1239.67</ele>
        <time>2018-10-18T06:04:20Z</time>
      </trkpt>
      <trkpt lat="45.07708" lon="5.62843">
        <ele>1238.04</ele>
        <time>2018-10-18T06:04:22Z</time>
      </trkpt>
      <trkpt lat="45.07692" lon="5.62875">
        <ele>1236.06</ele>
        <time>2018-10-18T06:04:26Z</time>
      </trkpt>
      <trkpt lat="45.07694" lon="5.62902">
        <ele>1234.92</ele>
        <time>2018-10-18T06:04:28Z</time>
      </trkpt>
      <trkpt lat="45.07712" lon="5.6289">
        <ele>1231.66</ele>
        <time>2018-10-18T06:04:32Z</time>
      </trkpt>
      <trkpt lat="45.07691" lon="5.62879">
        <ele>1231.54</ele>
        <time>2018-10-18T06:04:36Z</time>
      </trkpt>
      <trkpt lat="45.07709" lon="5.62878">
        <ele>1231.49</ele>
        <time>2018-10-18T06:04:42Z</time>
      </trkpt>
      <trkpt lat="45.07696" lon="5.62923">
        <ele>1226.24</ele>
        <time>2018-10-18T06:04:47Z</time>
      </trkpt>
      <trkpt lat="45.07679" lon="5.62956">
        <ele>1214.87</ele>
        <time>2018-10-18T06:04:49Z</time>
      </trkpt>
      <trkpt lat="45.07657" lon="5.62983">
        <ele>1199.67</ele>
        <time>2018-10-18T06:04:51Z</time>
      </trkpt>
      <trkpt lat="45.07638" lon="5.63007">
        <ele>1182.86</ele>
        <time>2018-10-18T06:04:53Z</time>
      </trkpt>
      <trkpt lat="45.07622" lon="5.63027">
        <ele>1166.71</ele>
        <time>2018-10-18T06:04:55Z</time>
      </trkpt>
      <trkpt lat="45.07596" lon="5.63053">
        <ele>1139.67</ele>
        <time>2018-10-18T06:04:59Z</time>
      </trkpt>
      <trkpt lat="45.07579" lon="5.63092">
        <ele>1120.56</ele>
        <time>2018-10-18T06:05:03Z</time>
      </trkpt>
      <trkpt lat="45.07572" lon="5.63131">
        <ele>1108.66</ele>
        <time>2018-10-18T06:05:07Z</time>
      </trkpt>
      <trkpt lat="45.07559" lon="5.63169">
        <ele>1100.48</ele>
        <time>2018-10-18T06:05:11Z</time>
      </trkpt>
      <trkpt lat="45.07544" lon="5.63201">
        <ele>1094.91</ele>
        <time>2018-10-18T06:05:15Z</time>
      </trkpt>
      <trkpt lat="45.07539" lon="5.63242">
        <ele>1090.88</ele>
        <time>2018-10-18T06:05:19Z</time>
      </trkpt>
      <trkpt lat="45.07525" lon="5.63284">
        <ele>1087.23</ele>
        <time>2018-10-18T06:05:23Z</time>
      </trkpt>
      <trkpt lat="45.07498" lon="5.63302">
        <ele>1081.67</ele>
        <time>2018-10-18T06:05:27Z</time>
      </trkpt>
      <trkpt lat="45.07484" lon="5.63332">
        <ele>1075.4</ele>
        <time>2018-10-18T06:05:31Z</time>
      </trkpt>
      <trkpt lat="45.07494" lon="5.63373">
        <ele>1070.77</ele>
        <time>2018-10-18T06:05:35Z</time>
      </trkpt>
      <trkpt lat="45.07472" lon="5.63407">
        <ele>1067.35</ele>
        <time>2018-10-18T06:05:39Z</time>
      </trkpt>
      <trkpt lat="45.07458" lon="5.63441">
        <ele>1064.5</ele>
        <time>2018-10-18T06:05:43Z</time>
      </trkpt>
      <trkpt lat="45.07438" lon="5.63441">
        <ele>1063.01</ele>
        <time>2018-10-18T06:05:45Z</time>
      </trkpt>
      <trkpt lat="45.07408" lon="5.63452">
        <ele>1061.07</ele>
        <time>2018-10-18T06:05:49Z</time>
      </trkpt>
      <trkpt lat="45.07382" lon="5.63467">
        <ele>1056.66</ele>
        <time>2018-10-18T06:05:53Z</time>
      </trkpt>
      <trkpt lat="45.07377" lon="5.63492">
        <ele>1053.38</ele>
        <time>2018-10-18T06:05:55Z</time>
      </trkpt>
      <trkpt lat="45.07378" lon="5.6352">
        <ele>1051.74</ele>
        <time>2018-10-18T06:05:57Z</time>
      </trkpt>
      <trkpt lat="45.07378" lon="5.63547">
        <ele>1050.89</ele>
        <time>2018-10-18T06:05:59Z</time>
      </trkpt>
      <trkpt lat="45.07378" lon="5.63574">
        <ele>1048.76</ele>
        <time>2018-10-18T06:06:01Z</time>
      </trkpt>
      <trkpt lat="45.07373" lon="5.63616">
        <ele>1040.65</ele>
        <time>2018-10-18T06:06:05Z</time>
      </trkpt>
      <trkpt lat="45.0737" lon="5.63657">
        <ele>1029.17</ele>
        <time>2018-10-18T06:06:09Z</time>
      </trkpt>
      <trkpt lat="45.07382" lon="5.63689">
        <ele>1019.69</ele>
        <time>2018-10-18T06:06:13Z</time>
      </trkpt>
      <trkpt lat="45.07371" lon="5.63724">
        <ele>1011.18</ele>
        <time>2018-10-18T06:06:17Z</time>
      </trkpt>
      <trkpt lat="45.07352" lon="5.63749">
        <ele>1003.89</ele>
        <time>2018-10-18T06:06:21Z</time>
      </trkpt>
      <trkpt lat="45.07342" lon="5.6379">
        <ele>995.39</ele>
        <time>2018-10-18T06:06:25Z</time>
      </trkpt>
      <trkpt lat="45.07333" lon="5.63829">
        <ele>986.47</ele>
        <time>2018-10-18T06:06:29Z</time>
      </trkpt>
      <trkpt lat="45.0733" lon="5.63868">
        <ele>979.14</ele>
        <time>2018-10-18T06:06:33Z</time>
      </trkpt>
      <trkpt lat="45.07328" lon="5.63903">
        <ele>971.18</ele>
        <time>2018-10-18T06:06:37Z</time>
      </trkpt>
      <trkpt lat="45.07312" lon="5.63878">
        <ele>965.64</ele>
        <time>2018-10-18T06:06:55Z</time>
      </trkpt>
      <trkpt lat="45.07305" lon="5.63948">
        <ele>984.72</ele>
        <time>2018-10-18T06:07:03Z</time>
      </trkpt>
      <trkpt lat="45.07286" lon="5.63985">
        <ele>970.67</ele>
        <time>2018-10-18T06:07:07Z</time>
      </trkpt>
      <trkpt lat="45.07266" lon="5.64024">
        <ele>941.27</ele>
        <time>2018-10-18T06:07:11Z</time>
      </trkpt>
      <trkpt lat="45.07255" lon="5.64057">
        <ele>918.37</ele>
        <time>2018-10-18T06:07:15Z</time>
      </trkpt>
      <trkpt lat="45.07241" lon="5.64094">
        <ele>900.44</ele>
        <time>2018-10-18T06:07:19Z</time>
      </trkpt>
      <trkpt lat="45.07227" lon="5.64131">
        <ele>886.8</ele>
        <time>2018-10-18T06:07:23Z</time>
      </trkpt>
      <trkpt lat="45.07212" lon="5.64164">
        <ele>876.65</ele>
        <time>2018-10-18T06:07:27Z</time>
      </trkpt>
      <trkpt lat="45.07192" lon="5.64191">
        <ele>866.9</ele>
        <time>2018-10-18T06:07:31Z</time>
      </trkpt>
      <trkpt lat="45.07173" lon="5.64219">
        <ele>853.92</ele>
        <time>2018-10-18T06:07:35Z</time>
      </trkpt>
      <trkpt lat="45.07146" lon="5.64223">
        <ele>840.01</ele>
        <time>2018-10-18T06:07:39Z</time>
      </trkpt>
      <trkpt lat="45.0713" lon="5.64188">
        <ele>829.25</ele>
        <time>2018-10-18T06:07:43Z</time>
      </trkpt>
      <trkpt lat="45.0715" lon="5.64145">
        <ele>820.49</ele>
        <time>2018-10-18T06:07:47Z</time>
      </trkpt>
      <trkpt lat="45.0717" lon="5.64145">
        <ele>816.78</ele>
        <time>2018-10-18T06:07:49Z</time>
      </trkpt>
      <trkpt lat="45.07182" lon="5.64165">
        <ele>812.61</ele>
        <time>2018-10-18T06:07:51Z</time>
      </trkpt>
      <trkpt lat="45.0718" lon="5.64192">
        <ele>808.11</ele>
        <time>2018-10-18T06:07:53Z</time>
      </trkpt>
      <trkpt lat="45.0715" lon="5.64202">
        <ele>798.67</ele>
        <time>2018-10-18T06:07:57Z</time>
      </trkpt>
      <trkpt lat="45.07152" lon="5.6416">
        <ele>787.6</ele>
        <time>2018-10-18T06:08:01Z</time>
      </trkpt>
      <trkpt lat="45.0717" lon="5.64151">
        <ele>782.25</ele>
        <time>2018-10-18T06:08:03Z</time>
      </trkpt>
      <trkpt lat="45.07186" lon="5.64163">
        <ele>776.9</ele>
        <time>2018-10-18T06:08:05Z</time>
      </trkpt>
      <trkpt lat="45.07193" lon="5.6419">
        <ele>771.23</ele>
        <time>2018-10-18T06:08:07Z</time>
      </trkpt>
      <trkpt lat="45.07184" lon="5.64215">
        <ele>765.57</ele>
        <time>2018-10-18T06:08:09Z</time>
      </trkpt>
      <trkpt lat="45.07166" lon="5.64226">
        <ele>760.35</ele>
        <time>2018-10-18T06:08:11Z</time>
      </trkpt>
      <trkpt lat="45.07143" lon="5.64195">
        <ele>751.06</ele>
        <time>2018-10-18T06:08:15Z</time>
      </trkpt>
      <trkpt lat="45.07135" lon="5.64159">
        <ele>742.46</ele>
        <time>2018-10-18T06:08:19Z</time>
      </trkpt>
      <trkpt lat="45.07114" lon="5.64123">
        <ele>730.75</ele>
        <time>2018-10-18T06:08:24Z</time>
      </trkpt>
      <trkpt lat="45.07096" lon="5.64096">
        <ele>720.65</ele>
        <time>2018-10-18T06:08:28Z</time>
      </trkpt>
      <trkpt lat="45.07082" lon="5.64065">
        <ele>712.24</ele>
        <time>2018-10-18T06:08:32Z</time>
      </trkpt>
      <trkpt lat="45.07063" lon="5.64074">
        <ele>706.2</ele>
        <time>2018-10-18T06:08:36Z</time>
      </trkpt>
      <trkpt lat="45.07079" lon="5.64099">
        <ele>703.12</ele>
        <time>2018-10-18T06:08:40Z</time>
      </trkpt>
      <trkpt lat="45.07099" lon="5.64076">
        <ele>701</ele>
        <time>2018-10-18T06:08:44Z</time>
      </trkpt>
      <trkpt lat="45.07078" lon="5.64048">
        <ele>698.94</ele>
        <time>2018-10-18T06:08:48Z</time>
      </trkpt>
      <trkpt lat="45.07048" lon="5.64032">
        <ele>696.53</ele>
        <time>2018-10-18T06:08:52Z</time>
      </trkpt>
      <trkpt lat="45.07025" lon="5.64025">
        <ele>690.84</ele>
        <time>2018-10-18T06:08:56Z</time>
      </trkpt>
      <trkpt lat="45.07002" lon="5.64043">
        <ele>684.8</ele>
        <time>2018-10-18T06:09:00Z</time>
      </trkpt>
      <trkpt lat="45.06979" lon="5.64048">
        <ele>676.76</ele>
        <time>2018-10-18T06:09:04Z</time>
      </trkpt>
      <trkpt lat="45.06995" lon="5.64018">
        <ele>660.83</ele>
        <time>2018-10-18T06:09:08Z</time>
      </trkpt>
      <trkpt lat="45.07018" lon="5.64028">
        <ele>655.45</ele>
        <time>2018-10-18T06:09:10Z</time>
      </trkpt>
      <trkpt lat="45.07024" lon="5.64059">
        <ele>652.76</ele>
        <time>2018-10-18T06:09:16Z</time>
      </trkpt>
      <trkpt lat="45.06994" lon="5.64075">
        <ele>640.98</ele>
        <time>2018-10-18T06:09:27Z</time>
      </trkpt>
      <trkpt lat="45.06994" lon="5.64046">
        <ele>626.99</ele>
        <time>2018-10-18T06:09:32Z</time>
      </trkpt>
      <trkpt lat="45.06995" lon="5.64012">
        <ele>609.81</ele>
        <time>2018-10-18T06:09:36Z</time>
      </trkpt>
      <trkpt lat="45.07015" lon="5.63995">
        <ele>599.82</ele>
        <time>2018-10-18T06:09:39Z</time>
      </trkpt>
      <trkpt lat="45.07036" lon="5.63975">
        <ele>587.71</ele>
        <time>2018-10-18T06:09:43Z</time>
      </trkpt>
      <trkpt lat="45.07018" lon="5.63966">
        <ele>588.31</ele>
        <time>2018-10-18T06:09:49Z</time>
      </trkpt>
      <trkpt lat="45.06996" lon="5.63961">
        <ele>566.41</ele>
        <time>2018-10-18T06:09:53Z</time>
      </trkpt>
      <trkpt lat="45.06971" lon="5.63959">
        <ele>525.71</ele>
        <time>2018-10-18T06:09:57Z</time>
      </trkpt>
      <trkpt lat="45.06947" lon="5.63955">
        <ele>490.49</ele>
        <time>2018-10-18T06:10:01Z</time>
      </trkpt>
      <trkpt lat="45.06922" lon="5.63945">
        <ele>465.98</ele>
        <time>2018-10-18T06:10:05Z</time>
      </trkpt>
      <trkpt lat="45.06908" lon="5.63962">
        <ele>457.57</ele>
        <time>2018-10-18T06:10:07Z</time>
      </trkpt>
      <trkpt lat="45.06902" lon="5.63987">
        <ele>450.95</ele>
        <time>2018-10-18T06:10:09Z</time>
      </trkpt>
      <trkpt lat="45.06908" lon="5.64028">
        <ele>441.08</ele>
        <time>2018-10-18T06:10:13Z</time>
      </trkpt>
      <trkpt lat="45.06922" lon="5.64061">
        <ele>430.77</ele>
        <time>2018-10-18T06:10:17Z</time>
      </trkpt>
      <trkpt lat="45.0695" lon="5.64065">
        <ele>422.41</ele>
        <time>2018-10-18T06:10:21Z</time>
      </trkpt>
      <trkpt lat="45.06977" lon="5.64061">
        <ele>419.63</ele>
        <time>2018-10-18T06:10:25Z</time>
      </trkpt>
      <trkpt lat="45.06995" lon="5.64088">
        <ele>416.78</ele>
        <time>2018-10-18T06:10:29Z</time>
      </trkpt>
      <trkpt lat="45.07005" lon="5.64113">
        <ele>411.68</ele>
        <time>2018-10-18T06:10:35Z</time>
      </trkpt>
      <trkpt lat="45.07013" lon="5.64139">
        <ele>405.49</ele>
        <time>2018-10-18T06:11:54Z</time>
      </trkpt>
      <trkpt lat="45.07029" lon="5.64152">
        <ele>404.44</ele>
        <time>2018-10-18T06:12:08Z</time>
      </trkpt>
    </trkseg>
  </trk>
</gpx>